createdAt,value
2022-12-03T00:00:36.105Z,29.63
2022-12-03T00:03:03.038Z,35.15
2022-12-03T00:05:29.863Z,31.95
2022-12-03T00:07:57.042Z,30.58
2022-12-03T00:10:23.806Z,29.17
2022-12-03T00:12:50.580Z,30.92
2022-12-03T00:15:17.459Z,30.15
2022-12-03T00:17:44.163Z,28.67
2022-12-03T00:20:17.886Z,26.38
2022-12-03T00:22:44.654Z,30.27
2022-12-03T00:25:11.374Z,34.45
2022-12-03T00:27:38.075Z,30.25
2022-12-03T00:30:06.076Z,31.05
2022-12-03T00:32:35.942Z,31.02
2022-12-03T00:35:02.746Z,31.27
2022-12-03T00:37:30.081Z,29.23
2022-12-03T00:39:57.129Z,31.60
2022-12-03T00:42:23.832Z,29.55
2022-12-03T00:44:50.790Z,30.63
2022-12-03T00:47:17.784Z,35.45
2022-12-03T00:49:44.442Z,33.63
2022-12-03T00:52:11.374Z,29.88
2022-12-03T00:54:38.094Z,30.42
2022-12-03T00:57:04.862Z,32.95
2022-12-03T00:59:31.602Z,33.63
2022-12-03T01:01:58.342Z,32.72
2022-12-03T01:04:25.133Z,31.70
2022-12-03T01:06:51.857Z,32.33
2022-12-03T01:09:18.629Z,34.50
2022-12-03T01:11:45.312Z,27.90
2022-12-03T01:14:15.526Z,32.97
2022-12-03T01:16:42.857Z,33.25
2022-12-03T01:19:10.732Z,33.53
2022-12-03T01:21:37.784Z,31.05
2022-12-03T01:24:04.818Z,29.63
2022-12-03T01:26:31.610Z,30.83
2022-12-03T01:28:58.294Z,32.00
2022-12-03T01:31:43.561Z,33.13
2022-12-03T01:34:10.243Z,33.45
2022-12-03T01:36:36.888Z,29.48
2022-12-03T01:39:04.280Z,32.05
2022-12-03T01:41:32.417Z,30.48
2022-12-03T01:43:59.704Z,34.58
2022-12-03T01:46:40.711Z,31.77
2022-12-03T01:49:15.024Z,29.77
2022-12-03T01:51:41.966Z,32.45
2022-12-03T01:54:19.475Z,29.52
2022-12-03T01:56:47.296Z,32.92
2022-12-03T01:59:19.950Z,33.88
2022-12-03T02:04:15.220Z,34.20
2022-12-03T02:06:43.306Z,35.17
2022-12-03T02:09:11.999Z,33.13
2022-12-03T02:11:46.860Z,31.67
2022-12-03T02:14:20.091Z,36.95
2022-12-03T02:16:47.043Z,31.30
2022-12-03T02:19:24.322Z,37.47
2022-12-03T02:21:58.698Z,34.35
2022-12-03T02:24:36.834Z,32.15
2022-12-03T02:27:03.591Z,32.78
2022-12-03T02:29:30.534Z,32.50
2022-12-03T02:31:57.488Z,35.35
2022-12-03T02:34:42.665Z,33.80
2022-12-03T02:37:17.448Z,32.08
2022-12-03T02:39:50.113Z,35.72
2022-12-03T02:42:36.373Z,36.67
2022-12-03T02:45:13.897Z,32.30
2022-12-03T02:47:46.581Z,33.95
2022-12-03T02:50:17.393Z,33.65
2022-12-03T02:52:45.984Z,37.00
2022-12-03T02:55:15.401Z,39.22
2022-12-03T02:57:44.658Z,35.08
2022-12-03T03:00:12.402Z,32.30
2022-12-03T03:02:41.746Z,35.60
2022-12-03T03:05:11.719Z,34.95
2022-12-03T03:07:39.709Z,37.25
2022-12-03T03:10:09.315Z,34.55
2022-12-03T03:12:39.337Z,35.30
2022-12-03T03:15:07.489Z,35.15
2022-12-03T03:17:34.489Z,32.50
2022-12-03T03:20:02.009Z,34.88
2022-12-03T03:22:34.123Z,38.65
2022-12-03T03:25:01.215Z,38.05
2022-12-03T03:27:28.751Z,34.28
2022-12-03T03:29:57.957Z,35.10
2022-12-03T03:32:26.441Z,35.20
2022-12-03T03:34:53.671Z,41.53
2022-12-03T03:37:20.823Z,35.47
2022-12-03T03:39:47.818Z,33.92
2022-12-03T03:42:14.693Z,32.78
2022-12-03T03:44:41.508Z,36.28
2022-12-03T03:47:08.317Z,35.30
2022-12-03T03:49:35.470Z,35.92
2022-12-03T03:52:02.433Z,34.83
2022-12-03T03:54:29.299Z,37.30
2022-12-03T03:56:56.154Z,37.15
2022-12-03T03:59:22.888Z,37.03
2022-12-03T04:01:49.722Z,34.20
2022-12-03T04:04:22.013Z,37.88
2022-12-03T04:06:49.068Z,37.90
2022-12-03T04:09:16.250Z,36.60
2022-12-03T04:12:01.685Z,33.13
2022-12-03T04:14:28.490Z,35.33
2022-12-03T04:16:55.336Z,34.40
2022-12-03T04:19:22.058Z,34.83
2022-12-03T04:22:07.441Z,42.80
2022-12-03T04:24:34.149Z,41.28
2022-12-03T04:27:19.641Z,38.03
2022-12-03T04:29:46.359Z,38.47
2022-12-03T04:32:31.666Z,37.25
2022-12-03T04:35:36.685Z,32.95
2022-12-03T04:38:03.455Z,36.17
2022-12-03T04:40:48.645Z,32.50
2022-12-03T04:43:15.317Z,34.42
2022-12-03T04:45:42.034Z,36.55
2022-12-03T04:48:08.992Z,36.15
2022-12-03T04:50:35.631Z,35.88
2022-12-03T04:53:02.352Z,36.20
2022-12-03T04:55:29.347Z,37.10
2022-12-03T04:57:56.170Z,35.40
2022-12-03T05:00:23.074Z,33.33
2022-12-03T05:02:49.910Z,33.90
2022-12-03T05:05:17.222Z,36.58
2022-12-03T05:07:44.073Z,32.92
2022-12-03T05:10:12.141Z,34.13
2022-12-03T05:12:38.830Z,33.80
2022-12-03T05:15:06.329Z,33.78
2022-12-03T05:17:33.378Z,35.15
2022-12-03T05:20:19.120Z,37.75
2022-12-03T05:22:46.008Z,36.55
2022-12-03T05:25:12.673Z,36.33
2022-12-03T05:27:39.613Z,32.88
2022-12-03T05:30:07.130Z,34.00
2022-12-03T05:32:33.802Z,35.35
2022-12-03T05:35:00.490Z,35.65
2022-12-03T05:37:27.151Z,34.75
2022-12-03T05:39:53.965Z,35.22
2022-12-03T05:42:39.125Z,36.60
2022-12-03T05:45:06.440Z,36.58
2022-12-03T05:47:33.409Z,35.15
2022-12-03T05:50:00.114Z,36.78
2022-12-03T05:52:26.961Z,35.28
2022-12-03T05:54:54.389Z,34.05
2022-12-03T05:57:21.258Z,38.72
2022-12-03T05:59:47.919Z,35.33
2022-12-03T06:02:14.740Z,34.20
2022-12-03T06:04:41.488Z,36.72
2022-12-03T06:07:13.603Z,32.60
2022-12-03T06:09:40.756Z,36.42
2022-12-03T06:12:08.718Z,33.50
2022-12-03T06:14:35.697Z,29.02
2022-12-03T06:17:03.029Z,32.42
2022-12-03T06:19:29.645Z,36.38
2022-12-03T06:21:56.363Z,31.52
2022-12-03T06:24:23.027Z,28.98
2022-12-03T06:26:49.652Z,31.90
2022-12-03T06:29:16.276Z,28.92
2022-12-03T06:31:43.039Z,33.40
2022-12-03T06:34:09.918Z,30.45
2022-12-03T06:36:36.744Z,31.83
2022-12-03T06:39:03.925Z,26.85
2022-12-03T06:41:31.379Z,29.70
2022-12-03T06:43:58.269Z,29.33
2022-12-03T06:46:25.421Z,33.90
2022-12-03T06:48:52.197Z,29.92
2022-12-03T06:51:19.021Z,30.13
2022-12-03T06:53:45.734Z,28.60
2022-12-03T06:56:12.502Z,31.52
2022-12-03T06:58:39.182Z,35.72
2022-12-03T07:01:05.965Z,32.85
2022-12-03T07:03:32.645Z,32.30
2022-12-03T07:05:59.344Z,31.85
2022-12-03T07:08:26.420Z,38.17
2022-12-03T07:10:53.326Z,33.95
2022-12-03T07:13:20.290Z,30.98
2022-12-03T07:15:47.118Z,36.97
2022-12-03T07:18:13.944Z,34.65
2022-12-03T07:20:40.856Z,35.13
2022-12-03T07:23:07.686Z,36.97
2022-12-03T07:25:34.471Z,39.08
2022-12-03T07:28:01.222Z,34.75
2022-12-03T07:30:28.065Z,37.17
2022-12-03T07:32:57.113Z,42.67
2022-12-03T07:35:23.906Z,35.38
2022-12-03T07:37:50.641Z,38.03
2022-12-03T07:40:17.875Z,36.63
2022-12-03T07:42:44.603Z,36.42
2022-12-03T07:45:11.673Z,35.33
2022-12-03T07:47:38.494Z,37.78
2022-12-03T07:50:05.635Z,39.13
2022-12-03T07:52:32.478Z,33.65
2022-12-03T07:54:59.232Z,39.95
2022-12-03T07:57:25.889Z,36.40
2022-12-03T07:59:52.605Z,41.88
2022-12-03T08:02:21.550Z,37.65
2022-12-03T08:04:48.663Z,39.83
2022-12-03T08:07:15.392Z,44.85
2022-12-03T08:09:42.639Z,47.10
2022-12-03T08:12:17.429Z,41.85
2022-12-03T08:14:44.594Z,44.88
2022-12-03T08:17:12.965Z,44.83
2022-12-03T08:19:44.922Z,46.30
2022-12-03T08:22:14.237Z,46.40
2022-12-03T08:24:41.556Z,43.88
2022-12-03T08:27:19.716Z,45.58
2022-12-03T08:29:46.777Z,46.40
2022-12-03T08:32:13.914Z,49.33
2022-12-03T08:34:42.846Z,46.97
2022-12-03T08:37:18.102Z,50.63
2022-12-03T08:39:50.234Z,48.55
2022-12-03T08:42:41.186Z,42.15
2022-12-03T08:45:29.006Z,41.08
2022-12-03T08:48:33.666Z,46.17
2022-12-03T08:51:05.208Z,41.67
2022-12-03T08:53:37.577Z,43.40
2022-12-03T08:56:23.981Z,46.70
2022-12-03T08:59:00.580Z,43.47
2022-12-03T09:01:37.440Z,45.33
2022-12-03T09:04:38.626Z,42.92
2022-12-03T09:07:05.475Z,46.25
2022-12-03T09:09:35.038Z,65.60
2022-12-03T09:12:03.633Z,52.63
2022-12-03T09:14:30.302Z,52.50
2022-12-03T09:16:57.118Z,45.33
2022-12-03T09:19:30.854Z,47.47
2022-12-03T09:21:57.525Z,50.25
2022-12-03T09:24:24.240Z,43.05
2022-12-03T09:26:51.029Z,48.72
2022-12-03T09:29:17.688Z,48.08
2022-12-03T09:31:44.384Z,46.25
2022-12-03T09:34:11.326Z,49.10
2022-12-03T09:36:38.186Z,46.05
2022-12-03T09:39:05.386Z,46.78
2022-12-03T09:41:32.375Z,50.92
2022-12-03T09:44:08.611Z,43.78
2022-12-03T09:46:39.673Z,41.92
2022-12-03T09:49:13.992Z,42.45
2022-12-03T09:51:43.328Z,45.47
2022-12-03T09:54:20.783Z,40.80
2022-12-03T09:56:47.535Z,45.85
2022-12-03T09:59:15.076Z,44.65
2022-12-03T10:01:42.834Z,42.10
2022-12-03T10:04:10.081Z,50.83
2022-12-03T10:06:40.973Z,39.22
2022-12-03T10:09:13.101Z,45.25
2022-12-03T10:11:40.183Z,50.13
2022-12-03T10:14:06.932Z,49.80
2022-12-03T10:16:36.146Z,51.03
2022-12-03T10:19:03.167Z,53.10
2022-12-03T10:21:36.765Z,50.53
2022-12-03T10:24:21.825Z,52.22
2022-12-03T10:26:51.361Z,61.22
2022-12-03T10:29:28.189Z,54.15
2022-12-03T10:32:01.098Z,60.92
2022-12-03T10:34:30.802Z,52.30
2022-12-03T10:37:12.646Z,58.83
2022-12-03T10:40:01.635Z,66.85
2022-12-03T10:42:32.302Z,62.28
2022-12-03T10:45:18.061Z,56.00
2022-12-03T10:48:04.071Z,57.70
2022-12-03T10:50:31.089Z,64.35
2022-12-03T10:52:57.833Z,57.67
2022-12-03T10:55:25.157Z,60.53
2022-12-03T10:57:52.130Z,55.22
2022-12-03T11:00:22.850Z,53.92
2022-12-03T11:02:56.487Z,50.72
2022-12-03T11:05:27.466Z,58.35
2022-12-03T11:07:54.560Z,52.80
2022-12-03T11:10:21.808Z,60.05
2022-12-03T11:13:26.972Z,54.97
2022-12-03T11:15:54.113Z,50.83
2022-12-03T11:18:37.151Z,53.22
2022-12-03T11:21:06.938Z,51.15
2022-12-03T11:23:46.151Z,51.88
2022-12-03T11:26:28.995Z,46.78
2022-12-03T11:28:59.856Z,54.38
2022-12-03T11:31:36.209Z,52.22
2022-12-03T11:34:18.305Z,42.33
2022-12-03T11:37:10.187Z,48.25
2022-12-03T11:39:53.138Z,43.65
2022-12-03T11:42:26.026Z,37.75
2022-12-03T11:45:10.979Z,37.03
2022-12-03T11:47:43.851Z,34.75
2022-12-03T11:53:00.266Z,33.15
2022-12-03T11:55:34.672Z,35.78
2022-12-03T11:58:04.394Z,33.70
2022-12-03T12:00:31.454Z,34.83
2022-12-03T12:02:59.353Z,33.30
2022-12-03T12:05:33.680Z,33.35
2022-12-03T12:08:02.516Z,31.38
2022-12-03T12:10:46.537Z,33.20
2022-12-03T12:13:32.540Z,33.00
2022-12-03T12:16:05.364Z,34.30
2022-12-03T12:18:53.711Z,47.22
2022-12-03T12:21:50.222Z,28.23
2022-12-03T12:24:31.663Z,34.28
2022-12-03T12:27:01.186Z,29.88
2022-12-03T12:29:28.460Z,37.95
2022-12-03T12:32:16.775Z,32.88
2022-12-03T12:34:46.923Z,34.28
2022-12-03T12:37:25.569Z,31.73
2022-12-03T12:39:56.410Z,33.90
2022-12-03T12:42:30.211Z,32.22
2022-12-03T12:45:17.906Z,35.10
2022-12-03T12:48:24.109Z,43.40
2022-12-03T12:51:09.536Z,40.45
2022-12-03T12:53:38.758Z,35.00
2022-12-03T12:56:26.690Z,38.17
2022-12-03T12:58:54.536Z,34.40
2022-12-03T13:01:28.058Z,35.00
2022-12-03T13:03:55.571Z,33.75
2022-12-03T13:06:26.875Z,35.22
2022-12-03T13:08:55.168Z,40.85
2022-12-03T13:11:24.940Z,44.92
2022-12-03T13:13:52.207Z,33.08
2022-12-03T13:16:33.005Z,37.40
2022-12-03T13:19:01.246Z,40.00
2022-12-03T13:21:42.713Z,38.65
2022-12-03T13:24:26.767Z,40.47
2022-12-03T13:26:53.526Z,44.60
2022-12-03T13:29:22.951Z,35.13
2022-12-03T13:32:01.450Z,40.78
2022-12-03T13:34:36.437Z,35.80
2022-12-03T13:37:13.039Z,36.75
2022-12-03T13:39:47.814Z,44.92
2022-12-03T13:42:33.143Z,40.72
2022-12-03T13:45:01.731Z,43.95
2022-12-03T13:47:28.678Z,46.38
2022-12-03T13:49:58.978Z,51.80
2022-12-03T13:52:26.615Z,48.67
2022-12-03T13:54:55.904Z,46.88
2022-12-03T13:57:23.135Z,50.13
2022-12-03T13:59:49.857Z,57.47
2022-12-03T14:02:16.755Z,62.15
2022-12-03T14:04:46.353Z,61.40
2022-12-03T14:07:13.042Z,60.60
2022-12-03T14:09:41.230Z,58.97
2022-12-03T14:12:26.163Z,64.45
2022-12-03T14:14:53.706Z,66.55
2022-12-03T14:17:20.768Z,67.47
2022-12-03T14:19:47.502Z,60.55
2022-12-03T14:22:14.239Z,65.90
2022-12-03T14:24:41.134Z,64.78
2022-12-03T14:27:08.146Z,60.95
2022-12-03T14:29:34.968Z,63.28
2022-12-03T14:32:02.167Z,62.53
2022-12-03T14:34:28.921Z,59.45
2022-12-03T14:36:59.426Z,57.03
2022-12-03T14:39:28.275Z,55.50
2022-12-03T14:42:15.000Z,56.22
2022-12-03T14:44:47.641Z,54.72
2022-12-03T14:47:16.389Z,52.80
2022-12-03T14:49:43.454Z,49.55
2022-12-03T14:52:12.493Z,46.70
2022-12-03T14:54:42.309Z,45.28
2022-12-03T14:57:13.159Z,44.63
2022-12-03T14:59:43.748Z,47.08
2022-12-03T15:02:12.152Z,37.90
2022-12-03T15:04:40.229Z,39.30
2022-12-03T15:07:07.612Z,39.63
2022-12-03T15:09:34.849Z,41.58
2022-12-03T15:12:03.210Z,37.30
2022-12-03T15:14:29.909Z,33.72
2022-12-03T15:16:56.846Z,37.55
2022-12-03T15:19:23.901Z,36.53
2022-12-03T15:21:50.558Z,34.17
2022-12-03T15:24:17.284Z,38.88
2022-12-03T15:26:44.018Z,35.60
2022-12-03T15:29:12.014Z,39.15
2022-12-03T15:31:38.882Z,33.15
2022-12-03T15:34:05.655Z,36.47
2022-12-03T15:36:32.357Z,34.22
2022-12-03T15:38:59.533Z,33.80
2022-12-03T15:41:29.384Z,35.67
2022-12-03T15:43:58.934Z,35.45
2022-12-03T15:46:27.663Z,37.35
2022-12-03T15:48:55.645Z,38.92
2022-12-03T15:51:22.582Z,48.05
2022-12-03T15:53:49.229Z,38.22
2022-12-03T15:56:16.045Z,42.80
2022-12-03T15:58:42.752Z,45.08
2022-12-03T16:01:09.981Z,45.97
2022-12-03T16:03:36.852Z,45.65
2022-12-03T16:06:03.934Z,53.08
2022-12-03T16:08:30.787Z,56.20
2022-12-03T16:10:57.643Z,55.35
2022-12-03T16:13:24.489Z,63.28
2022-12-03T16:15:51.376Z,66.88
2022-12-03T16:18:18.069Z,67.13
2022-12-03T16:20:44.856Z,55.38
2022-12-03T16:23:11.711Z,59.78
2022-12-03T16:25:38.561Z,58.90
2022-12-03T16:28:06.252Z,72.75
2022-12-03T16:30:32.931Z,65.15
2022-12-03T16:32:59.603Z,55.10
2022-12-03T16:35:26.265Z,75.05
2022-12-03T16:37:52.913Z,60.38
2022-12-03T16:40:19.767Z,56.25
2022-12-03T16:42:46.457Z,62.00
2022-12-03T16:45:32.995Z,59.40
2022-12-03T16:48:01.575Z,61.22
2022-12-03T16:50:30.141Z,58.70
2022-12-03T16:52:57.604Z,68.90
2022-12-03T16:55:24.576Z,58.85
2022-12-03T16:57:51.365Z,65.88
2022-12-03T17:00:18.254Z,62.63
2022-12-03T17:02:44.999Z,58.28
2022-12-03T17:05:11.810Z,54.63
2022-12-03T17:07:38.564Z,60.00
2022-12-03T17:10:06.232Z,55.97
2022-12-03T17:13:00.733Z,54.25
2022-12-03T17:15:19.681Z,58.90
2022-12-03T17:17:46.518Z,59.75
2022-12-03T17:20:14.833Z,58.10
2022-12-03T17:22:41.994Z,67.00
2022-12-03T17:25:09.747Z,60.15
2022-12-03T17:27:40.767Z,60.40
2022-12-03T17:30:15.734Z,61.67
2022-12-03T17:32:42.545Z,66.47
2022-12-03T17:35:10.509Z,57.65
2022-12-03T17:37:39.401Z,58.95
2022-12-03T17:40:07.583Z,58.70
2022-12-03T17:42:34.274Z,58.67
2022-12-03T17:45:01.069Z,63.65
2022-12-03T17:47:27.805Z,66.28
2022-12-03T17:49:55.480Z,60.28
2022-12-03T17:52:22.779Z,62.30
2022-12-03T17:55:09.677Z,70.28
2022-12-03T17:57:36.049Z,68.45
2022-12-03T18:00:03.110Z,63.15
2022-12-03T18:02:39.080Z,63.25
2022-12-03T18:05:05.938Z,67.25
2022-12-03T18:07:32.708Z,60.40
2022-12-03T18:09:59.585Z,71.68
2022-12-03T18:12:26.363Z,66.13
2022-12-03T18:14:53.041Z,60.20
2022-12-03T18:17:19.730Z,58.40
2022-12-03T18:19:46.387Z,67.25
2022-12-03T18:22:13.078Z,59.10
2022-12-03T18:24:40.236Z,59.20
2022-12-03T18:27:07.061Z,57.70
2022-12-03T18:29:33.854Z,57.78
2022-12-03T18:32:00.820Z,58.47
2022-12-03T18:34:27.664Z,56.25
2022-12-03T18:36:54.630Z,55.03
2022-12-03T18:39:32.495Z,54.80
2022-12-03T18:41:59.135Z,50.45
2022-12-03T18:44:25.981Z,52.60
2022-12-03T18:46:54.292Z,52.72
2022-12-03T18:49:21.872Z,54.35
2022-12-03T18:51:49.010Z,54.03
2022-12-03T18:54:17.310Z,54.15
2022-12-03T18:56:44.010Z,51.85
2022-12-03T18:59:11.095Z,57.33
2022-12-03T19:01:37.980Z,59.72
2022-12-03T19:04:04.906Z,57.67
2022-12-03T19:06:32.509Z,62.17
2022-12-03T19:08:59.224Z,64.03
2022-12-03T19:11:25.906Z,67.25
2022-12-03T19:13:52.574Z,57.88
2022-12-03T19:16:19.359Z,58.97
2022-12-03T19:18:46.118Z,49.40
2022-12-03T19:21:15.470Z,68.85
2022-12-03T19:23:47.242Z,53.40
2022-12-03T19:26:25.832Z,54.92
2022-12-03T19:28:53.759Z,55.42
2022-12-03T19:31:20.794Z,52.50
2022-12-03T19:33:48.086Z,47.65
2022-12-03T19:36:23.390Z,57.22
2022-12-03T19:38:56.700Z,57.15
2022-12-03T19:41:27.337Z,52.75
2022-12-03T19:43:55.665Z,55.13
2022-12-03T19:46:24.795Z,53.03
2022-12-03T19:48:51.889Z,54.97
2022-12-03T19:51:35.307Z,55.65
2022-12-03T19:54:04.340Z,53.72
2022-12-03T19:56:31.514Z,55.88
2022-12-03T19:58:58.415Z,55.03
2022-12-03T20:01:30.942Z,53.80
2022-12-03T20:03:59.322Z,51.75
2022-12-03T20:06:28.557Z,53.83
2022-12-03T20:08:59.918Z,49.67
2022-12-03T20:11:30.396Z,58.33
2022-12-03T20:14:03.050Z,54.92
2022-12-03T20:16:30.006Z,49.60
2022-12-03T20:18:58.739Z,54.58
2022-12-03T20:21:25.521Z,51.50
2022-12-03T20:23:52.258Z,58.80
2022-12-03T20:26:21.152Z,50.80
2022-12-03T20:28:48.167Z,51.33
2022-12-03T20:31:17.798Z,44.22
2022-12-03T20:33:49.714Z,50.55
2022-12-03T20:36:18.934Z,58.00
2022-12-03T20:38:45.837Z,52.95
2022-12-03T20:41:18.301Z,46.65
2022-12-03T20:43:45.584Z,52.97
2022-12-03T20:46:15.021Z,53.40
2022-12-03T20:48:43.911Z,49.60
2022-12-03T20:51:14.085Z,50.30
2022-12-03T20:53:40.927Z,50.83
2022-12-03T20:56:08.377Z,47.25
2022-12-03T20:58:35.841Z,52.53
2022-12-03T21:01:18.664Z,57.38
2022-12-03T21:03:46.302Z,53.72
2022-12-03T21:06:13.914Z,51.33
2022-12-03T21:08:42.385Z,51.70
2022-12-03T21:11:18.690Z,48.30
2022-12-03T21:13:46.405Z,53.35
2022-12-03T21:16:16.040Z,51.75
2022-12-03T21:18:43.113Z,54.75
2022-12-03T21:21:11.980Z,55.65
2022-12-03T21:23:38.810Z,57.25
2022-12-03T21:26:11.614Z,54.80
2022-12-03T21:31:08.383Z,55.13
2022-12-03T21:33:35.811Z,56.20
2022-12-03T21:36:02.975Z,62.30
2022-12-03T21:38:30.537Z,54.72
2022-12-03T21:40:58.416Z,53.95
2022-12-03T21:43:25.625Z,55.38
2022-12-03T21:45:53.292Z,58.97
2022-12-03T21:48:20.767Z,55.78
2022-12-03T21:51:01.378Z,59.40
2022-12-03T21:53:28.899Z,51.67
2022-12-03T21:55:55.711Z,52.88
2022-12-03T21:58:22.335Z,54.25
2022-12-03T22:00:49.018Z,57.80
2022-12-03T22:03:15.735Z,56.92
2022-12-03T22:05:42.544Z,51.58
2022-12-03T22:08:09.692Z,51.03
2022-12-03T22:10:36.870Z,50.95
2022-12-03T22:13:03.557Z,48.75
2022-12-03T22:15:30.330Z,48.53
2022-12-03T22:17:56.981Z,50.65
2022-12-03T22:20:23.698Z,50.35
2022-12-03T22:22:50.431Z,51.17
2022-12-03T22:25:17.255Z,51.47
2022-12-03T22:27:43.950Z,58.63
2022-12-03T22:30:10.862Z,59.80
2022-12-03T22:32:37.489Z,53.60
2022-12-03T22:35:04.886Z,56.60
2022-12-03T22:37:32.765Z,52.30
2022-12-03T22:39:59.518Z,50.92
2022-12-03T22:42:26.243Z,54.35
2022-12-03T22:44:53.046Z,62.75
2022-12-03T22:47:19.735Z,58.83
2022-12-03T22:49:46.356Z,49.72
2022-12-03T22:52:13.026Z,53.53
2022-12-03T22:54:39.663Z,51.88
2022-12-03T22:57:06.348Z,57.35
2022-12-03T22:59:33.059Z,52.85
2022-12-03T23:01:59.785Z,57.90
2022-12-03T23:04:26.410Z,52.78
2022-12-03T23:06:53.100Z,54.03
2022-12-03T23:09:19.810Z,59.72
2022-12-03T23:11:46.662Z,59.85
2022-12-03T23:14:13.479Z,57.47
2022-12-03T23:16:40.923Z,57.90
2022-12-03T23:19:07.766Z,57.65
2022-12-03T23:21:35.422Z,54.25
2022-12-03T23:24:04.194Z,57.45
2022-12-03T23:26:34.505Z,66.75
2022-12-03T23:29:01.195Z,54.80
2022-12-03T23:31:29.981Z,65.03
2022-12-03T23:33:58.001Z,61.85
2022-12-03T23:36:26.990Z,64.18
2022-12-03T23:38:54.595Z,58.47
2022-12-03T23:41:23.150Z,57.63
2022-12-03T23:43:49.945Z,60.45
2022-12-03T23:46:20.590Z,64.15
2022-12-03T23:48:47.386Z,64.40
2022-12-03T23:51:17.923Z,60.42
2022-12-03T23:53:45.162Z,59.95
2022-12-03T23:56:23.975Z,57.22
2022-12-03T23:58:51.157Z,55.90
